Time;durP1;ratioP1;P1;durP2;ratioP2;P2;SDS_P1;SDS_P2;PMS_P1;PMS_P2;Temp;Humidity;BMP_temperature;BMP_pressure;BME280_temperature;BME280_humidity;BME280_pressure;Samples;Min_cycle;Max_cycle;Signal;HPM_P1;HPM_P2
2021/05/05 00:00:54;;;;;;;0.20;0.20;;;;;;;;;;5026883;28;20028;-66
2021/05/05 00:03:20;;;;;;;0.20;0.20;;;;;;;;;;5045687;28;20063;-66
2021/05/05 00:05:45;;;;;;;0.10;0.10;;;;;;;;;;5046228;28;20271;-66
2021/05/05 00:08:10;;;;;;;0.20;0.20;;;;;;;;;;5042942;28;20279;-66
2021/05/05 00:10:35;;;;;;;0.20;0.20;;;;;;;;;;5043988;28;20279;-66
2021/05/05 00:13:00;;;;;;;0.10;0.10;;;;;;;;;;5022797;28;20028;-66
2021/05/05 00:15:26;;;;;;;0.20;0.20;;;;;;;;;;5041511;28;20083;-66
2021/05/05 00:17:52;;;;;;;0.20;0.20;;;;;;;;;;5026568;28;20103;-67
2021/05/05 00:20:17;;;;;;;0.13;0.13;;;;;;;;;;5045095;28;20025;-66
2021/05/05 00:22:42;;;;;;;0.20;0.20;;;;;;;;;;5043947;28;20029;-67
2021/05/05 00:25:08;;;;;;;0.20;0.20;;;;;;;;;;5039118;28;20488;-66
2021/05/05 00:27:33;;;;;;;0.20;0.20;;;;;;;;;;5022340;28;20495;-67
2021/05/05 00:29:58;;;;;;;0.20;0.20;;;;;;;;;;5039871;28;20013;-66
2021/05/05 00:32:26;;;;;;;0.20;0.20;;;;;;;;;;5038393;28;20029;-66
2021/05/05 00:34:52;;;;;;;0.20;0.20;;;;;;;;;;5025351;28;20033;-66
2021/05/05 00:37:17;;;;;;;0.20;0.20;;;;;;;;;;5026583;28;20078;-66
2021/05/05 00:39:44;;;;;;;0.13;0.13;;;;;;;;;;5040009;28;20060;-66
2021/05/05 00:42:10;;;;;;;0.20;0.20;;;;;;;;;;5039251;28;20786;-66
2021/05/05 00:44:35;;;;;;;0.20;0.20;;;;;;;;;;5023896;28;20104;-66
2021/05/05 00:47:00;;;;;;;0.20;0.20;;;;;;;;;;5037858;28;20037;-65
2021/05/05 00:49:26;;;;;;;0.20;0.20;;;;;;;;;;5044011;28;20775;-65
2021/05/05 00:51:51;;;;;;;0.20;0.20;;;;;;;;;;5024300;28;20041;-66
2021/05/05 00:54:16;;;;;;;0.20;0.20;;;;;;;;;;5021396;28;20021;-66
2021/05/05 00:56:42;;;;;;;0.10;0.10;;;;;;;;;;5025330;28;20903;-66
2021/05/05 00:59:07;;;;;;;0.20;0.20;;;;;;;;;;5036643;28;20287;-66
2021/05/05 01:01:32;;;;;;;0.20;0.20;;;;;;;;;;5038268;28;20500;-66
2021/05/05 01:03:57;;;;;;;0.20;0.20;;;;;;;;;;5038703;28;20314;-65
2021/05/05 01:06:23;;;;;;;0.20;0.20;;;;;;;;;;5042349;28;20025;-66
2021/05/05 01:08:48;;;;;;;0.20;0.20;;;;;;;;;;5043616;28;20862;-66
2021/05/05 01:11:16;;;;;;;0.20;0.20;;;;;;;;;;5042785;28;20267;-66
2021/05/05 01:13:42;;;;;;;0.20;0.20;;;;;;;;;;5026377;28;20028;-66
2021/05/05 01:16:07;;;;;;;0.20;0.20;;;;;;;;;;5045132;28;20018;-66
2021/05/05 01:18:32;;;;;;;0.20;0.20;;;;;;;;;;5043067;28;20024;-66
2021/05/05 01:20:58;;;;;;;0.20;0.20;;;;;;;;;;5041978;28;20759;-66
2021/05/05 01:23:23;;;;;;;0.20;0.20;;;;;;;;;;5026758;28;20275;-66
2021/05/05 01:25:48;;;;;;;0.20;0.20;;;;;;;;;;5051315;28;20029;-66
2021/05/05 01:28:14;;;;;;;0.20;0.20;;;;;;;;;;5026185;28;20036;-66
2021/05/05 01:30:39;;;;;;;0.20;0.20;;;;;;;;;;5046674;28;20735;-66
2021/05/05 01:33:04;;;;;;;0.10;0.10;;;;;;;;;;5028776;28;20272;-66
2021/05/05 01:35:29;;;;;;;0.10;0.10;;;;;;;;;;5026569;28;20343;-66
2021/05/05 01:37:54;;;;;;;0.20;0.20;;;;;;;;;;5045707;28;20049;-66
2021/05/05 01:40:29;;;;;;;0.20;0.20;;;;;;;;;;5046242;28;20361;-66
2021/05/05 01:42:55;;;;;;;0.20;0.20;;;;;;;;;;5027241;28;20883;-66
2021/05/05 01:45:20;;;;;;;0.20;0.20;;;;;;;;;;5021231;28;20112;-66
2021/05/05 01:47:45;;;;;;;0.20;0.20;;;;;;;;;;5044019;28;20035;-66
2021/05/05 01:50:11;;;;;;;0.20;0.20;;;;;;;;;;5029381;28;20090;-66
2021/05/05 01:52:36;;;;;;;0.20;0.20;;;;;;;;;;5043864;28;20044;-66
2021/05/05 01:55:01;;;;;;;0.20;0.20;;;;;;;;;;5025913;28;20014;-66
2021/05/05 01:57:33;;;;;;;0.20;0.20;;;;;;;;;;5025907;28;20021;-66
2021/05/05 02:00:03;;;;;;;0.20;0.20;;;;;;;;;;5048612;28;20756;-66
2021/05/05 02:02:28;;;;;;;0.20;0.20;;;;;;;;;;5045053;28;20021;-66
2021/05/05 02:04:54;;;;;;;0.20;0.20;;;;;;;;;;5046270;28;20014;-66
2021/05/05 02:07:19;;;;;;;0.20;0.20;;;;;;;;;;5048004;28;20059;-66
2021/05/05 02:09:44;;;;;;;0.20;0.20;;;;;;;;;;5042468;28;20355;-66
2021/05/05 02:12:09;;;;;;;0.20;0.20;;;;;;;;;;5043771;28;20271;-66
2021/05/05 02:14:35;;;;;;;0.20;0.20;;;;;;;;;;5044076;28;20458;-66
2021/05/05 02:17:00;;;;;;;0.20;0.20;;;;;;;;;;5039798;28;20021;-66
2021/05/05 02:19:25;;;;;;;0.20;0.20;;;;;;;;;;5043722;28;20020;-66
2021/05/05 02:21:50;;;;;;;0.20;0.20;;;;;;;;;;5025869;28;20030;-66
2021/05/05 02:24:16;;;;;;;0.20;0.20;;;;;;;;;;5027305;28;20521;-66
2021/05/05 02:26:41;;;;;;;0.20;0.20;;;;;;;;;;5041988;28;20029;-66
2021/05/05 02:29:06;;;;;;;0.20;0.20;;;;;;;;;;5028078;28;20294;-66
2021/05/05 02:31:31;;;;;;;0.20;0.20;;;;;;;;;;5043882;28;20032;-66
2021/05/05 02:33:57;;;;;;;0.20;0.20;;;;;;;;;;5038907;28;20021;-67
2021/05/05 02:36:22;;;;;;;0.20;0.20;;;;;;;;;;5043295;28;20047;-66
2021/05/05 02:38:47;;;;;;;0.20;0.20;;;;;;;;;;5039714;28;20075;-66
2021/05/05 02:41:12;;;;;;;0.10;0.10;;;;;;;;;;5041250;28;20292;-66
2021/05/05 02:43:38;;;;;;;0.20;0.20;;;;;;;;;;5043803;28;20390;-66
2021/05/05 02:46:03;;;;;;;0.10;0.10;;;;;;;;;;5044278;28;20108;-66
2021/05/05 02:48:29;;;;;;;0.20;0.20;;;;;;;;;;5042011;28;20287;-66
2021/05/05 02:50:54;;;;;;;0.20;0.20;;;;;;;;;;5044406;28;20370;-66
2021/05/05 02:53:19;;;;;;;0.20;0.20;;;;;;;;;;5041130;28;20342;-67
2021/05/05 02:55:44;;;;;;;0.20;0.20;;;;;;;;;;5040284;28;20279;-66
2021/05/05 02:58:09;;;;;;;0.20;0.20;;;;;;;;;;5025961;28;20716;-66
2021/05/05 03:00:34;;;;;;;0.10;0.10;;;;;;;;;;5043817;28;20281;-66
2021/05/05 03:03:00;;;;;;;0.20;0.20;;;;;;;;;;5040075;28;20271;-66
2021/05/05 03:05:25;;;;;;;0.20;0.20;;;;;;;;;;5043754;28;20755;-66
2021/05/05 03:07:50;;;;;;;0.20;0.20;;;;;;;;;;5043512;28;20321;-66
2021/05/05 03:10:15;;;;;;;0.20;0.20;;;;;;;;;;5040873;28;20357;-66
2021/05/05 03:12:40;;;;;;;0.20;0.20;;;;;;;;;;5040304;28;20021;-66
2021/05/05 03:15:06;;;;;;;0.20;0.20;;;;;;;;;;5047516;28;20017;-66
2021/05/05 03:17:31;;;;;;;0.10;0.10;;;;;;;;;;5047336;28;21797;-66
2021/05/05 03:19:57;;;;;;;0.20;0.20;;;;;;;;;;5024776;28;20017;-66
2021/05/05 03:22:22;;;;;;;0.20;0.20;;;;;;;;;;5044172;28;20338;-66
2021/05/05 03:24:47;;;;;;;0.20;0.20;;;;;;;;;;5040302;28;20078;-66
2021/05/05 03:27:12;;;;;;;0.20;0.20;;;;;;;;;;5024966;28;20283;-66
2021/05/05 03:29:37;;;;;;;0.20;0.20;;;;;;;;;;5039170;28;20431;-66
2021/05/05 03:32:03;;;;;;;0.20;0.20;;;;;;;;;;5041646;28;20283;-66
2021/05/05 03:34:28;;;;;;;0.20;0.20;;;;;;;;;;5042516;28;20748;-66
2021/05/05 03:36:53;;;;;;;0.20;0.20;;;;;;;;;;5026272;28;20484;-66
2021/05/05 03:39:18;;;;;;;0.30;0.30;;;;;;;;;;5043920;28;20275;-66
2021/05/05 03:41:43;;;;;;;0.20;0.20;;;;;;;;;;5042247;28;20055;-66
2021/05/05 03:44:09;;;;;;;0.20;0.20;;;;;;;;;;5041032;28;20027;-66
2021/05/05 03:46:37;;;;;;;0.20;0.20;;;;;;;;;;5042493;28;20315;-66
2021/05/05 03:49:03;;;;;;;0.20;0.20;;;;;;;;;;5040333;28;20025;-66
2021/05/05 03:51:28;;;;;;;0.20;0.20;;;;;;;;;;5041677;28;20010;-66
2021/05/05 03:53:53;;;;;;;0.20;0.20;;;;;;;;;;5027889;28;20028;-65
2021/05/05 03:56:18;;;;;;;0.20;0.20;;;;;;;;;;5042795;28;20271;-66
2021/05/05 03:58:43;;;;;;;0.20;0.20;;;;;;;;;;5029186;28;20716;-66
2021/05/05 04:01:08;;;;;;;0.20;0.20;;;;;;;;;;5041512;28;20272;-66
2021/05/05 04:03:34;;;;;;;0.20;0.20;;;;;;;;;;5041008;28;20624;-66
2021/05/05 04:05:59;;;;;;;0.20;0.20;;;;;;;;;;5039636;28;20322;-66
2021/05/05 04:08:24;;;;;;;0.20;0.20;;;;;;;;;;5040592;28;20035;-66
2021/05/05 04:10:49;;;;;;;0.20;0.20;;;;;;;;;;5041502;28;20029;-66
2021/05/05 04:13:14;;;;;;;0.20;0.20;;;;;;;;;;5031209;28;20028;-66
2021/05/05 04:15:40;;;;;;;0.20;0.20;;;;;;;;;;5037563;28;20685;-66
2021/05/05 04:18:05;;;;;;;0.20;0.20;;;;;;;;;;5024823;28;20291;-66
2021/05/05 04:20:30;;;;;;;0.20;0.20;;;;;;;;;;5026817;28;20163;-66
2021/05/05 04:22:55;;;;;;;0.22;0.22;;;;;;;;;;5043100;28;20048;-66
2021/05/05 04:25:20;;;;;;;0.20;0.20;;;;;;;;;;5042001;28;20104;-66
2021/05/05 04:27:47;;;;;;;0.20;0.20;;;;;;;;;;5046292;28;20287;-66
2021/05/05 04:30:18;;;;;;;0.20;0.20;;;;;;;;;;5045953;28;20644;-66
2021/05/05 04:32:43;;;;;;;0.20;0.20;;;;;;;;;;5041679;28;20017;-66
2021/05/05 04:35:09;;;;;;;0.20;0.20;;;;;;;;;;5044723;28;20040;-66
2021/05/05 04:37:34;;;;;;;0.20;0.20;;;;;;;;;;5043961;28;20123;-66
2021/05/05 04:40:01;;;;;;;0.20;0.20;;;;;;;;;;5025015;28;20017;-66
2021/05/05 04:42:26;;;;;;;0.20;0.20;;;;;;;;;;5041977;28;20286;-66
2021/05/05 04:44:51;;;;;;;0.20;0.20;;;;;;;;;;5026732;28;20025;-66
2021/05/05 04:47:16;;;;;;;0.20;0.20;;;;;;;;;;5031266;28;20014;-65
2021/05/05 04:49:41;;;;;;;0.20;0.20;;;;;;;;;;5044073;28;20381;-65
2021/05/05 04:52:06;;;;;;;0.20;0.20;;;;;;;;;;5024514;28;20268;-65
2021/05/05 04:54:32;;;;;;;0.20;0.20;;;;;;;;;;5027276;28;20271;-65
2021/05/05 04:56:57;;;;;;;0.20;0.20;;;;;;;;;;5045611;28;20264;-66
2021/05/05 04:59:22;;;;;;;0.20;0.20;;;;;;;;;;5044526;28;20052;-67
2021/05/05 05:01:47;;;;;;;0.20;0.20;;;;;;;;;;5042176;28;20302;-67
2021/05/05 05:04:13;;;;;;;0.20;0.20;;;;;;;;;;5027484;28;20103;-67
2021/05/05 05:06:38;;;;;;;0.20;0.20;;;;;;;;;;5024585;28;20515;-67
2021/05/05 05:09:03;;;;;;;0.20;0.20;;;;;;;;;;5048747;28;20290;-67
2021/05/05 05:11:28;;;;;;;0.20;0.20;;;;;;;;;;5050397;28;20620;-67
2021/05/05 05:13:54;;;;;;;0.20;0.20;;;;;;;;;;5048923;28;20013;-66
2021/05/05 05:16:19;;;;;;;0.20;0.20;;;;;;;;;;5050239;28;20021;-65
2021/05/05 05:18:44;;;;;;;0.30;0.30;;;;;;;;;;5056253;28;20029;-65
2021/05/05 05:21:09;;;;;;;0.20;0.20;;;;;;;;;;5027028;28;20260;-65
2021/05/05 05:23:35;;;;;;;0.20;0.20;;;;;;;;;;5024435;28;20036;-66
2021/05/05 05:26:00;;;;;;;0.20;0.20;;;;;;;;;;5044250;28;20126;-66
2021/05/05 05:28:25;;;;;;;0.20;0.20;;;;;;;;;;5024464;28;20122;-67
2021/05/05 05:30:51;;;;;;;0.20;0.20;;;;;;;;;;5040153;28;20818;-66
2021/05/05 05:33:16;;;;;;;0.20;0.20;;;;;;;;;;5027981;28;20421;-66
2021/05/05 05:35:41;;;;;;;0.20;0.20;;;;;;;;;;5045268;28;20025;-66
2021/05/05 05:38:06;;;;;;;0.20;0.20;;;;;;;;;;5029445;28;20330;-66
2021/05/05 05:40:32;;;;;;;0.20;0.20;;;;;;;;;;5028397;28;20347;-66
2021/05/05 05:42:57;;;;;;;0.25;0.25;;;;;;;;;;5044534;28;20104;-67
2021/05/05 05:45:22;;;;;;;0.20;0.20;;;;;;;;;;5025562;28;20017;-66
2021/05/05 05:47:48;;;;;;;0.20;0.20;;;;;;;;;;5043350;28;20345;-66
2021/05/05 05:50:13;;;;;;;0.20;0.20;;;;;;;;;;5046432;28;20105;-66
2021/05/05 05:52:38;;;;;;;0.20;0.20;;;;;;;;;;5042256;28;20024;-66
2021/05/05 05:55:04;;;;;;;0.20;0.20;;;;;;;;;;5040374;28;20104;-66
2021/05/05 05:57:29;;;;;;;0.20;0.20;;;;;;;;;;5043184;28;20029;-67
2021/05/05 05:59:54;;;;;;;0.10;0.10;;;;;;;;;;5025573;28;20024;-66
2021/05/05 06:02:19;;;;;;;0.20;0.20;;;;;;;;;;5034059;28;20347;-67
2021/05/05 06:04:44;;;;;;;0.20;0.20;;;;;;;;;;5045292;28;20313;-66
2021/05/05 06:07:10;;;;;;;0.20;0.20;;;;;;;;;;5046531;28;20025;-66
2021/05/05 06:09:35;;;;;;;0.20;0.20;;;;;;;;;;5045196;28;20275;-66
2021/05/05 06:12:00;;;;;;;0.20;0.20;;;;;;;;;;5048164;28;20264;-66
2021/05/05 06:14:25;;;;;;;0.20;0.20;;;;;;;;;;5045214;28;21052;-66
2021/05/05 06:16:50;;;;;;;0.20;0.20;;;;;;;;;;5045817;28;20283;-66
2021/05/05 06:19:16;;;;;;;0.20;0.20;;;;;;;;;;5028783;28;20033;-66
2021/05/05 06:21:41;;;;;;;0.20;0.20;;;;;;;;;;5046383;28;20667;-66
2021/05/05 06:24:06;;;;;;;0.20;0.20;;;;;;;;;;5048810;28;20453;-68
2021/05/05 06:26:32;;;;;;;0.20;0.20;;;;;;;;;;5028392;28;20037;-65
2021/05/05 06:28:57;;;;;;;0.10;0.10;;;;;;;;;;5028439;28;20040;-65
2021/05/05 06:31:22;;;;;;;0.20;0.20;;;;;;;;;;5047427;28;20390;-65
2021/05/05 06:33:50;;;;;;;0.20;0.20;;;;;;;;;;5040798;28;20390;-65
2021/05/05 06:36:15;;;;;;;0.20;0.20;;;;;;;;;;5043481;28;20074;-65
2021/05/05 06:38:40;;;;;;;0.20;0.20;;;;;;;;;;5025652;28;20478;-65
2021/05/05 06:41:06;;;;;;;0.20;0.20;;;;;;;;;;5045528;28;20070;-65
2021/05/05 06:43:31;;;;;;;0.20;0.20;;;;;;;;;;5044852;28;20103;-65
2021/05/05 06:45:56;;;;;;;0.20;0.20;;;;;;;;;;5046520;28;20497;-64
2021/05/05 06:48:21;;;;;;;0.20;0.20;;;;;;;;;;5046057;28;20036;-65
2021/05/05 06:50:46;;;;;;;0.20;0.20;;;;;;;;;;5045514;28;20656;-65
2021/05/05 06:53:12;;;;;;;0.10;0.10;;;;;;;;;;5027602;28;20264;-65
2021/05/05 06:55:37;;;;;;;0.20;0.20;;;;;;;;;;5047032;28;20057;-65
2021/05/05 06:58:04;;;;;;;0.10;0.10;;;;;;;;;;5040986;28;20469;-64
2021/05/05 07:00:29;;;;;;;0.20;0.20;;;;;;;;;;5027120;28;20026;-65
2021/05/05 07:02:54;;;;;;;0.20;0.20;;;;;;;;;;5021882;28;20029;-65
2021/05/05 07:05:19;;;;;;;0.10;0.10;;;;;;;;;;5046313;28;20655;-64
2021/05/05 07:07:45;;;;;;;0.20;0.20;;;;;;;;;;5043104;28;20655;-64
2021/05/05 07:10:13;;;;;;;0.20;0.20;;;;;;;;;;5027717;28;20272;-65
2021/05/05 07:12:40;;;;;;;0.20;0.20;;;;;;;;;;5021465;28;20053;-64
2021/05/05 07:15:06;;;;;;;0.13;0.13;;;;;;;;;;5026576;28;20021;-66
2021/05/05 07:17:31;;;;;;;0.20;0.20;;;;;;;;;;5046950;28;20792;-67
2021/05/05 07:19:57;;;;;;;0.20;0.20;;;;;;;;;;5027039;28;20016;-65
2021/05/05 07:22:22;;;;;;;0.10;0.10;;;;;;;;;;5023891;28;20092;-65
2021/05/05 07:24:48;;;;;;;0.15;0.15;;;;;;;;;;5042625;28;20096;-64
2021/05/05 07:27:13;;;;;;;0.20;0.20;;;;;;;;;;5043872;28;20053;-65
2021/05/05 07:29:39;;;;;;;0.10;0.10;;;;;;;;;;5044885;28;20026;-64
2021/05/05 07:32:04;;;;;;;0.10;0.10;;;;;;;;;;5029660;28;20036;-64
2021/05/05 07:34:29;;;;;;;0.10;0.10;;;;;;;;;;5027144;28;20028;-64
2021/05/05 07:37:01;;;;;;;0.20;0.20;;;;;;;;;;5043943;28;20031;-65
2021/05/05 07:39:50;;;;;;;0.10;0.10;;;;;;;;;;5042147;28;20261;-64
2021/05/05 07:47:27;;;;;;;0.20;0.20;;;;;;;;;;5048057;28;20453;-66
2021/05/05 07:49:54;;;;;;;0.20;0.20;;;;;;;;;;5046599;28;20025;-66
2021/05/05 07:52:20;;;;;;;0.13;0.13;;;;;;;;;;5041663;28;20013;-66
2021/05/05 07:54:45;;;;;;;0.15;0.15;;;;;;;;;;5044025;28;20079;-66
2021/05/05 07:57:11;;;;;;;0.10;0.10;;;;;;;;;;5044977;28;20038;-66
2021/05/05 07:59:36;;;;;;;0.20;0.20;;;;;;;;;;5044634;28;20018;-66
2021/05/05 08:02:01;;;;;;;0.20;0.20;;;;;;;;;;5045210;28;20044;-66
2021/05/05 08:04:26;;;;;;;0.20;0.20;;;;;;;;;;5023484;28;20024;-66
2021/05/05 08:06:51;;;;;;;0.20;0.20;;;;;;;;;;5038466;28;20032;-65
2021/05/05 08:09:17;;;;;;;0.20;0.20;;;;;;;;;;5043955;28;20299;-65
2021/05/05 08:11:42;;;;;;;0.20;0.20;;;;;;;;;;5020958;28;20117;-65
2021/05/05 08:14:07;;;;;;;0.20;0.20;;;;;;;;;;5041622;28;20047;-65
2021/05/05 08:16:35;;;;;;;0.20;0.20;;;;;;;;;;5037639;28;20377;-65
2021/05/05 08:19:00;;;;;;;0.20;0.20;;;;;;;;;;5042038;28;20662;-65
2021/05/05 08:21:27;;;;;;;0.10;0.10;;;;;;;;;;5027800;28;20029;-65
2021/05/05 08:23:52;;;;;;;0.10;0.10;;;;;;;;;;5040592;28;20375;-66
2021/05/05 08:26:17;;;;;;;0.20;0.20;;;;;;;;;;5043010;28;20044;-66
2021/05/05 08:28:42;;;;;;;0.10;0.10;;;;;;;;;;5025760;28;20106;-66
2021/05/05 08:31:08;;;;;;;0.15;0.15;;;;;;;;;;5048123;28;20027;-68
2021/05/05 08:33:33;;;;;;;0.10;0.10;;;;;;;;;;5034551;28;20017;-69
2021/05/05 08:35:58;;;;;;;0.17;0.17;;;;;;;;;;5036074;28;20021;-68
2021/05/05 08:38:23;;;;;;;0.10;0.10;;;;;;;;;;5041866;28;20029;-69
2021/05/05 08:40:49;;;;;;;0.10;0.10;;;;;;;;;;5020859;28;20291;-68
2021/05/05 08:43:14;;;;;;;0.10;0.10;;;;;;;;;;5030460;28;20017;-68
2021/05/05 08:45:40;;;;;;;0.10;0.10;;;;;;;;;;5042460;28;20495;-69
2021/05/05 08:48:06;;;;;;;0.10;0.10;;;;;;;;;;5038922;28;20025;-69
2021/05/05 08:50:32;;;;;;;0.10;0.10;;;;;;;;;;5047254;28;20051;-69
2021/05/05 08:52:57;;;;;;;0.10;0.10;;;;;;;;;;5034664;28;20071;-69
2021/05/05 08:55:23;;;;;;;0.10;0.10;;;;;;;;;;5037494;28;20017;-69
2021/05/05 08:57:48;;;;;;;0.10;0.10;;;;;;;;;;5036662;28;20100;-70
2021/05/05 09:00:15;;;;;;;0.10;0.10;;;;;;;;;;5051275;28;20524;-68
2021/05/05 09:02:40;;;;;;;0.10;0.10;;;;;;;;;;5029209;28;20029;-70
2021/05/05 09:05:09;;;;;;;0.10;0.10;;;;;;;;;;5046260;28;20100;-71
2021/05/05 09:07:35;;;;;;;0.10;0.10;;;;;;;;;;5027864;28;20453;-69
2021/05/05 09:10:07;;;;;;;0.10;0.10;;;;;;;;;;5033149;28;20045;-72
2021/05/05 09:12:34;;;;;;;0.10;0.10;;;;;;;;;;5045388;28;20025;-72
2021/05/05 09:15:00;;;;;;;0.10;0.10;;;;;;;;;;5043596;28;20144;-71
2021/05/05 09:17:30;;;;;;;0.10;0.10;;;;;;;;;;5020808;28;20029;-70
2021/05/05 09:20:15;;;;;;;0.10;0.10;;;;;;;;;;5029497;28;20021;-70
2021/05/05 09:22:47;;;;;;;0.10;0.10;;;;;;;;;;5041884;28;20029;-70
2021/05/05 09:25:23;;;;;;;0.10;0.10;;;;;;;;;;5047708;28;20033;-70
2021/05/05 09:28:06;;;;;;;0.10;0.10;;;;;;;;;;5042359;28;20091;-70
2021/05/05 09:30:31;;;;;;;0.10;0.10;;;;;;;;;;5043739;28;20234;-70
2021/05/05 09:32:56;;;;;;;0.10;0.10;;;;;;;;;;5029919;28;20023;-70
2021/05/05 09:35:34;;;;;;;0.10;0.10;;;;;;;;;;5045071;28;20658;-69
2021/05/05 09:38:04;;;;;;;0.10;0.10;;;;;;;;;;5044488;28;20267;-69
2021/05/05 09:40:29;;;;;;;0.10;0.10;;;;;;;;;;5046225;28;20039;-69
2021/05/05 09:42:54;;;;;;;0.10;0.10;;;;;;;;;;5026500;28;20567;-68
2021/05/05 09:45:20;;;;;;;0.17;0.17;;;;;;;;;;5031230;28;20382;-67
2021/05/05 09:47:53;;;;;;;0.20;0.20;;;;;;;;;;5045617;28;20022;-68
2021/05/05 09:50:31;;;;;;;0.10;0.10;;;;;;;;;;5048301;28;20084;-68
2021/05/05 09:53:12;;;;;;;0.10;0.10;;;;;;;;;;5050684;28;20039;-68
2021/05/05 09:55:37;;;;;;;0.20;0.20;;;;;;;;;;5043263;28;20024;-69
2021/05/05 09:58:22;;;;;;;0.10;0.10;;;;;;;;;;5044892;28;20373;-68
2021/05/05 10:00:52;;;;;;;0.10;0.10;;;;;;;;;;5051363;28;20078;-68
2021/05/05 10:03:33;;;;;;;0.20;0.20;;;;;;;;;;5046811;28;20064;-69
2021/05/05 10:06:00;;;;;;;0.20;0.20;;;;;;;;;;5030635;28;20049;-68
2021/05/05 10:08:25;;;;;;;0.20;0.20;;;;;;;;;;5029705;28;20028;-69
2021/05/05 10:10:51;;;;;;;0.20;0.20;;;;;;;;;;5031378;28;20017;-69
2021/05/05 10:13:17;;;;;;;0.10;0.10;;;;;;;;;;5038829;28;20049;-69
2021/05/05 10:15:42;;;;;;;0.13;0.13;;;;;;;;;;5056876;28;20021;-69
2021/05/05 10:18:08;;;;;;;0.10;0.10;;;;;;;;;;5053788;28;20036;-69
2021/05/05 10:20:33;;;;;;;0.10;0.10;;;;;;;;;;5034199;28;20028;-68
2021/05/05 10:22:59;;;;;;;0.10;0.10;;;;;;;;;;5032081;28;20492;-69
2021/05/05 10:25:29;;;;;;;0.15;0.15;;;;;;;;;;5037449;28;20271;-70
2021/05/05 10:27:54;;;;;;;0.10;0.10;;;;;;;;;;5048710;28;20504;-70
2021/05/05 10:30:24;;;;;;;0.10;0.10;;;;;;;;;;5048351;28;20025;-70
2021/05/05 10:32:49;;;;;;;0.10;0.10;;;;;;;;;;5049351;28;20039;-70
2021/05/05 10:35:15;;;;;;;0.10;0.10;;;;;;;;;;5033911;28;20512;-71
2021/05/05 10:37:41;;;;;;;0.10;0.10;;;;;;;;;;5030665;28;20275;-70
2021/05/05 10:40:14;;;;;;;0.10;0.10;;;;;;;;;;5025536;28;20481;-71
2021/05/05 10:42:47;;;;;;;0.10;0.10;;;;;;;;;;5042939;28;20025;-70
2021/05/05 10:45:24;;;;;;;0.10;0.10;;;;;;;;;;5042442;28;20018;-70
2021/05/05 10:48:01;;;;;;;0.10;0.10;;;;;;;;;;5027254;28;20017;-70
2021/05/05 10:50:27;;;;;;;0.10;0.10;;;;;;;;;;5033692;28;20033;-70
2021/05/05 10:52:54;;;;;;;0.10;0.10;;;;;;;;;;5043888;28;20032;-70
2021/05/05 10:55:35;;;;;;;0.10;0.10;;;;;;;;;;5044570;28;20043;-70
2021/05/05 10:58:17;;;;;;;0.10;0.10;;;;;;;;;;5042977;28;20370;-70
2021/05/05 11:00:43;;;;;;;0.10;0.10;;;;;;;;;;5029655;28;20033;-70
2021/05/05 11:03:09;;;;;;;0.10;0.10;;;;;;;;;;5029351;28;20031;-70
2021/05/05 11:05:35;;;;;;;0.10;0.10;;;;;;;;;;5029508;28;20104;-70
2021/05/05 11:08:03;;;;;;;0.00;0.00;;;;;;;;;;5031858;28;20146;-69
2021/05/05 11:10:36;;;;;;;0.00;0.00;;;;;;;;;;5042522;28;20017;-70
2021/05/05 11:13:03;;;;;;;0.00;0.00;;;;;;;;;;5042176;28;20029;-70
2021/05/05 11:15:51;;;;;;;0.00;0.00;;;;;;;;;;5043644;28;20083;-69
2021/05/05 11:18:38;;;;;;;0.00;0.00;;;;;;;;;;5035872;28;20025;-69
2021/05/05 11:21:09;;;;;;;0.00;0.00;;;;;;;;;;5047882;28;20031;-70
2021/05/05 11:23:52;;;;;;;0.00;0.00;;;;;;;;;;5045179;28;20025;-69
2021/05/05 11:26:19;;;;;;;0.00;0.00;;;;;;;;;;5047026;28;20036;-69
2021/05/05 11:28:50;;;;;;;0.00;0.00;;;;;;;;;;5045071;28;20021;-69
2021/05/05 11:31:18;;;;;;;0.00;0.00;;;;;;;;;;5052103;28;20134;-69
2021/05/05 11:33:57;;;;;;;0.00;0.00;;;;;;;;;;5029799;28;20025;-69
2021/05/05 11:36:22;;;;;;;0.00;0.00;;;;;;;;;;5045031;28;20025;-70
2021/05/05 11:38:47;;;;;;;0.00;0.00;;;;;;;;;;5046824;28;20078;-70
2021/05/05 11:41:12;;;;;;;0.00;0.00;;;;;;;;;;5044313;28;20045;-70
2021/05/05 11:43:38;;;;;;;0.00;0.00;;;;;;;;;;5026241;28;20053;-71
2021/05/05 11:46:03;;;;;;;0.00;0.00;;;;;;;;;;5046662;28;20025;-71
2021/05/05 11:48:30;;;;;;;0.00;0.00;;;;;;;;;;5024770;28;20305;-71
2021/05/05 11:50:55;;;;;;;0.00;0.00;;;;;;;;;;5047682;28;20382;-71
2021/05/05 11:53:30;;;;;;;0.00;0.00;;;;;;;;;;5045215;28;20029;-71
2021/05/05 11:55:56;;;;;;;0.00;0.00;;;;;;;;;;5027227;28;20462;-71
2021/05/05 11:58:21;;;;;;;0.00;0.00;;;;;;;;;;5024635;28;20088;-70
2021/05/05 12:00:47;;;;;;;0.00;0.00;;;;;;;;;;5042264;28;20036;-70
2021/05/05 12:03:12;;;;;;;0.00;0.00;;;;;;;;;;5039146;28;20060;-71
2021/05/05 12:05:41;;;;;;;0.00;0.00;;;;;;;;;;5046435;28;20024;-71
2021/05/05 12:08:07;;;;;;;0.00;0.00;;;;;;;;;;5046643;28;20111;-71
2021/05/05 12:10:37;;;;;;;0.00;0.00;;;;;;;;;;5046626;28;20017;-71
2021/05/05 12:13:06;;;;;;;0.00;0.00;;;;;;;;;;5040423;28;20029;-71
2021/05/05 12:15:32;;;;;;;0.00;0.00;;;;;;;;;;5045236;28;20450;-70
2021/05/05 12:18:03;;;;;;;0.00;0.00;;;;;;;;;;5026564;28;20032;-71
2021/05/05 12:20:29;;;;;;;0.00;0.00;;;;;;;;;;5031537;28;20021;-71
2021/05/05 12:22:58;;;;;;;0.00;0.00;;;;;;;;;;5043027;28;20487;-71
2021/05/05 12:25:26;;;;;;;0.00;0.00;;;;;;;;;;5033727;28;20477;-69
2021/05/05 12:28:02;;;;;;;0.00;0.00;;;;;;;;;;5045103;28;20734;-70
2021/05/05 12:30:38;;;;;;;0.00;0.00;;;;;;;;;;5046939;28;20026;-70
2021/05/05 12:33:03;;;;;;;0.03;0.03;;;;;;;;;;5030829;28;20108;-71
2021/05/05 12:35:29;;;;;;;0.00;0.00;;;;;;;;;;5048121;28;20121;-70
2021/05/05 12:37:56;;;;;;;0.10;0.10;;;;;;;;;;5046305;28;20372;-71
2021/05/05 12:40:22;;;;;;;0.10;0.10;;;;;;;;;;5026438;28;20038;-69
2021/05/05 12:42:48;;;;;;;0.10;0.10;;;;;;;;;;5028675;28;20033;-68
2021/05/05 12:45:14;;;;;;;0.10;0.10;;;;;;;;;;5026945;28;20030;-70
2021/05/05 12:47:40;;;;;;;0.10;0.10;;;;;;;;;;5029494;28;20020;-71
2021/05/05 12:50:07;;;;;;;0.20;0.20;;;;;;;;;;5025553;28;20047;-71
2021/05/05 12:52:35;;;;;;;0.10;0.10;;;;;;;;;;5031811;28;20029;-71
2021/05/05 12:55:21;;;;;;;0.10;0.10;;;;;;;;;;5043983;28;20048;-71
2021/05/05 12:58:03;;;;;;;0.10;0.10;;;;;;;;;;5034177;28;20034;-71
2021/05/05 13:00:29;;;;;;;0.10;0.10;;;;;;;;;;5023863;28;20155;-71
2021/05/05 13:03:02;;;;;;;0.10;0.10;;;;;;;;;;5027511;28;20540;-73
2021/05/05 13:05:27;;;;;;;0.10;0.10;;;;;;;;;;5035541;28;20108;-71
2021/05/05 13:07:53;;;;;;;0.10;0.10;;;;;;;;;;5042140;28;20096;-71
2021/05/05 13:10:23;;;;;;;0.10;0.10;;;;;;;;;;5042245;28;20060;-71
2021/05/05 13:13:00;;;;;;;0.10;0.10;;;;;;;;;;5044356;28;20355;-72
2021/05/05 13:15:41;;;;;;;0.10;0.10;;;;;;;;;;5046358;28;20463;-73
2021/05/05 13:20:43;;;;;;;0.00;0.00;;;;;;;;;;5040304;28;20036;-76
2021/05/05 13:31:12;;;;;;;0.00;0.00;;;;;;;;;;5042733;28;20040;-75
2021/05/05 13:33:38;;;;;;;0.00;0.00;;;;;;;;;;5044189;28;20072;-76
2021/05/05 13:36:03;;;;;;;0.00;0.00;;;;;;;;;;5043685;28;20048;-75
2021/05/05 13:38:28;;;;;;;0.00;0.00;;;;;;;;;;5029634;28;20028;-74
2021/05/05 13:40:55;;;;;;;0.00;0.00;;;;;;;;;;5042864;28;20045;-75
2021/05/05 13:45:53;;;;;;;0.00;0.00;;;;;;;;;;5043350;28;20075;-79
2021/05/05 13:50:54;;;;;;;0.00;0.00;;;;;;;;;;5045258;28;20474;-76
2021/05/05 13:53:19;;;;;;;0.00;0.00;;;;;;;;;;5046207;28;20021;-76
2021/05/05 13:55:44;;;;;;;0.00;0.00;;;;;;;;;;5048396;28;21849;-79
2021/05/05 13:58:10;;;;;;;0.00;0.00;;;;;;;;;;5048306;28;20552;-76
2021/05/05 14:00:35;;;;;;;0.00;0.00;;;;;;;;;;5023228;28;20272;-78
2021/05/05 14:03:00;;;;;;;0.00;0.00;;;;;;;;;;5027260;28;20025;-78
2021/05/05 14:05:25;;;;;;;0.00;0.00;;;;;;;;;;5045176;28;20303;-76
2021/05/05 14:07:51;;;;;;;0.00;0.00;;;;;;;;;;5026320;28;20029;-77
2021/05/05 14:10:16;;;;;;;0.00;0.00;;;;;;;;;;5042933;28;20021;-78
2021/05/05 14:12:41;;;;;;;0.00;0.00;;;;;;;;;;5041324;28;20264;-79
2021/05/05 14:15:07;;;;;;;0.00;0.00;;;;;;;;;;5040980;28;20021;-79
2021/05/05 14:17:37;;;;;;;0.00;0.00;;;;;;;;;;5046144;28;20024;-77
2021/05/05 14:20:06;;;;;;;0.00;0.00;;;;;;;;;;5043153;28;20029;-78
2021/05/05 14:22:31;;;;;;;0.00;0.00;;;;;;;;;;5048797;28;20476;-78
2021/05/05 14:24:57;;;;;;;0.00;0.00;;;;;;;;;;5046698;28;20031;-77
2021/05/05 14:27:22;;;;;;;0.00;0.00;;;;;;;;;;5047277;28;20041;-77
2021/05/05 14:29:47;;;;;;;0.00;0.00;;;;;;;;;;5046456;28;20280;-77
2021/05/05 14:32:12;;;;;;;0.00;0.00;;;;;;;;;;5065422;28;20025;-78
2021/05/05 14:34:38;;;;;;;0.00;0.00;;;;;;;;;;5043603;28;20683;-78
2021/05/05 14:37:03;;;;;;;0.00;0.00;;;;;;;;;;5029037;28;20056;-78
2021/05/05 14:39:28;;;;;;;0.00;0.00;;;;;;;;;;5050042;28;20601;-78
2021/05/05 14:41:53;;;;;;;0.00;0.00;;;;;;;;;;5030181;28;20053;-77
2021/05/05 14:49:10;;;;;;;0.00;0.00;;;;;;;;;;5045571;28;20637;-78
2021/05/05 14:51:38;;;;;;;0.00;0.00;;;;;;;;;;5042476;28;20276;-77
2021/05/05 14:54:04;;;;;;;0.00;0.00;;;;;;;;;;5043015;28;20075;-78
2021/05/05 14:56:29;;;;;;;0.00;0.00;;;;;;;;;;5047906;28;20458;-77
2021/05/05 14:58:59;;;;;;;0.00;0.00;;;;;;;;;;5046212;28;20453;-77
2021/05/05 15:01:24;;;;;;;0.00;0.00;;;;;;;;;;5046252;28;20107;-78
2021/05/05 15:03:50;;;;;;;0.20;0.00;;;;;;;;;;5044611;28;20114;-77
2021/05/05 15:06:20;;;;;;;0.00;0.00;;;;;;;;;;5028493;28;20029;-76